createdAt,value
2022-08-07T00:02:36.165Z,98680.09
2022-08-07T00:05:19.817Z,98679.47
2022-08-07T00:07:58.212Z,98672.22
2022-08-07T00:10:48.171Z,98672.56
2022-08-07T00:13:44.664Z,98673.03
2022-08-07T00:16:17.609Z,98676.47
2022-08-07T00:19:00.105Z,98671.31
2022-08-07T00:21:56.445Z,98676.50
2022-08-07T00:24:36.979Z,98677.34
2022-08-07T00:27:09.472Z,98674.28
2022-08-07T00:29:45.832Z,98672.72
2022-08-07T00:32:19.322Z,98678.28
2022-08-07T00:34:59.705Z,98686.06
2022-08-07T00:37:47.814Z,98682.53
2022-08-07T00:40:36.545Z,98674.72
2022-08-07T00:43:58.939Z,98675.16
2022-08-07T00:46:14.546Z,98671.88
2022-08-07T00:48:49.867Z,98637.47
2022-08-07T00:51:22.603Z,98675.72
2022-08-07T00:53:59.107Z,98691.38
2022-08-07T00:56:34.014Z,98693.31
2022-08-07T00:59:20.240Z,98687.53
2022-08-07T01:02:14.241Z,98689.47
2022-08-07T01:05:04.244Z,98670.75
2022-08-07T01:07:50.580Z,98677.03
2022-08-07T01:10:27.492Z,98680.69
2022-08-07T01:13:12.927Z,98680.69
2022-08-07T01:16:05.215Z,98673.38
2022-08-07T01:18:36.152Z,98666.41
2022-08-07T01:21:28.443Z,98682.50
2022-08-07T01:24:04.846Z,98673.28
2022-08-07T01:26:35.790Z,98679.75
2022-08-07T01:29:14.124Z,98679.13
2022-08-07T01:31:53.074Z,98681.63
2022-08-07T01:34:30.812Z,98684.44
2022-08-07T01:37:22.938Z,98686.53
2022-08-07T01:40:15.409Z,98685.00
2022-08-07T01:43:09.867Z,98689.16
2022-08-07T01:45:46.766Z,98693.59
2022-08-07T01:48:32.234Z,98680.81
2022-08-07T01:51:58.570Z,98693.09
2022-08-07T01:54:12.317Z,98675.41
2022-08-07T01:56:55.780Z,98691.31
2022-08-07T02:00:00.728Z,98687.88
2022-08-07T02:03:19.359Z,98673.13
2022-08-07T02:06:00.890Z,98685.44
2022-08-07T02:08:43.816Z,98685.06
2022-08-07T02:12:02.927Z,98685.97
2022-08-07T02:14:35.426Z,98677.13
2022-08-07T02:17:04.720Z,98684.88
2022-08-07T02:20:06.815Z,98687.31
2022-08-07T02:22:41.484Z,98684.25
2022-08-07T02:25:17.638Z,98681.53
2022-08-07T02:28:04.106Z,98673.56
2022-08-07T02:30:44.526Z,98685.88
2022-08-07T02:33:57.231Z,98688.94
2022-08-07T02:36:34.685Z,98683.78
2022-08-07T02:39:17.559Z,98689.88
2022-08-07T02:42:23.211Z,98696.31
2022-08-07T02:45:58.164Z,98683.53
2022-08-07T02:48:01.858Z,98676.91
2022-08-07T02:50:47.622Z,98694.81
2022-08-07T02:53:58.797Z,98700.28
2022-08-07T02:56:38.048Z,98705.19
2022-08-07T02:59:16.305Z,98699.03
2022-08-07T03:01:52.218Z,98702.19
2022-08-07T03:04:34.244Z,98682.38
2022-08-07T03:07:15.547Z,98698.56
2022-08-07T03:09:52.657Z,98700.03
2022-08-07T03:12:30.798Z,98710.00
2022-08-07T03:15:13.644Z,98710.88
2022-08-07T03:18:02.820Z,98711.47
2022-08-07T03:20:41.719Z,98704.00
2022-08-07T03:23:19.246Z,98712.03
2022-08-07T03:25:58.483Z,98718.28
2022-08-07T03:28:39.609Z,98713.88
2022-08-07T03:31:42.879Z,98724.09
2022-08-07T03:34:27.366Z,98722.84
2022-08-07T03:37:12.214Z,98718.44
2022-08-07T03:40:13.135Z,98724.34
2022-08-07T03:42:49.328Z,98715.59
2022-08-07T03:45:31.049Z,98710.78
2022-08-07T03:48:21.856Z,98703.50
2022-08-07T03:54:36.120Z,98715.22
2022-08-07T03:57:07.315Z,98713.53
2022-08-07T03:59:46.573Z,98705.81
2022-08-07T04:02:56.712Z,98720.19
2022-08-07T04:05:42.289Z,98715.22
2022-08-07T04:08:21.413Z,98703.88
2022-08-07T04:12:20.893Z,98722.00
2022-08-07T04:14:10.429Z,98723.91
2022-08-07T04:16:58.248Z,98734.31
2022-08-07T04:19:52.290Z,98734.09
2022-08-07T04:22:31.979Z,98740.50
2022-08-07T04:25:11.796Z,98744.22
2022-08-07T04:27:46.232Z,98737.66
2022-08-07T04:30:55.196Z,98699.50
2022-08-07T04:33:32.916Z,98732.94
2022-08-07T04:36:16.141Z,98754.53
2022-08-07T04:38:58.471Z,98750.66
2022-08-07T04:41:27.539Z,98765.19
2022-08-07T04:44:12.106Z,98764.72
2022-08-07T04:47:57.292Z,98770.78
2022-08-07T04:50:45.190Z,98772.66
2022-08-07T04:54:05.336Z,98773.47
2022-08-07T04:58:23.764Z,98780.25
2022-08-07T05:00:17.327Z,98782.28
2022-08-07T05:03:31.190Z,98779.09
2022-08-07T05:06:43.720Z,98778.94
2022-08-07T05:09:45.886Z,98788.00
2022-08-07T05:12:53.102Z,98784.06
2022-08-07T05:15:37.727Z,98789.03
2022-08-07T05:18:50.003Z,98790.50
2022-08-07T05:21:59.127Z,98765.34
2022-08-07T05:24:24.547Z,98775.97
2022-08-07T05:27:14.495Z,98767.78
2022-08-07T05:30:14.253Z,98783.75
2022-08-07T05:33:10.251Z,98791.06
2022-08-07T05:35:51.609Z,98785.56
2022-08-07T05:39:00.201Z,98778.94
2022-08-07T05:41:16.762Z,98785.22
2022-08-07T05:44:11.905Z,98782.66
2022-08-07T05:46:54.823Z,98772.94
2022-08-07T05:49:50.068Z,98777.34
2022-08-07T05:55:13.516Z,98789.63
2022-08-07T05:57:49.963Z,98789.03
2022-08-07T06:00:22.673Z,98770.69
2022-08-07T06:03:01.387Z,98787.47
2022-08-07T06:05:40.586Z,98783.91
2022-08-07T06:08:30.662Z,98786.06
2022-08-07T06:11:10.283Z,98790.75
2022-08-07T06:14:12.718Z,98783.63
2022-08-07T06:16:32.247Z,98794.75
2022-08-07T06:19:09.149Z,98796.06
2022-08-07T06:22:16.875Z,98800.44
2022-08-07T06:25:04.071Z,98801.25
2022-08-07T06:28:00.731Z,98791.56
2022-08-07T06:30:35.617Z,98792.94
2022-08-07T06:33:22.712Z,98796.81
2022-08-07T06:36:12.060Z,98793.63
2022-08-07T06:38:59.248Z,98786.31
2022-08-07T06:42:35.014Z,98797.91
2022-08-07T06:46:01.944Z,98794.88
2022-08-07T06:48:31.169Z,98797.41
2022-08-07T06:51:09.543Z,98784.50
2022-08-07T06:54:12.056Z,98787.69
2022-08-07T06:56:55.996Z,98793.09
2022-08-07T07:00:14.546Z,98791.25
2022-08-07T07:02:57.991Z,98791.91
2022-08-07T07:08:39.881Z,98790.69
2022-08-07T07:12:08.893Z,98796.03
2022-08-07T07:14:25.649Z,98789.13
2022-08-07T07:17:00.081Z,98777.94
2022-08-07T07:19:57.750Z,98780.69
2022-08-07T07:22:34.464Z,98780.97
2022-08-07T07:26:34.549Z,98783.16
2022-08-07T07:28:42.357Z,98775.88
2022-08-07T07:31:30.499Z,98767.75
2022-08-07T07:34:15.494Z,98769.28
2022-08-07T07:36:57.044Z,98749.50
2022-08-07T07:39:58.955Z,98766.88
2022-08-07T07:42:33.613Z,98763.28
2022-08-07T07:45:05.435Z,98751.31
2022-08-07T07:47:52.774Z,98742.69
2022-08-07T07:50:34.298Z,98762.44
2022-08-07T07:53:23.248Z,98753.75
2022-08-07T07:56:01.303Z,98746.78
2022-08-07T07:58:40.308Z,98752.59
2022-08-07T08:02:03.336Z,98755.47
2022-08-07T08:04:13.999Z,98758.88
2022-08-07T08:06:52.180Z,98747.56
2022-08-07T08:09:29.611Z,98748.94
2022-08-07T08:12:52.657Z,98751.00
2022-08-07T08:15:15.856Z,98740.78
2022-08-07T08:17:58.677Z,98739.28
2022-08-07T08:20:55.596Z,98726.59
2022-08-07T08:23:50.470Z,98746.16
2022-08-07T08:26:40.100Z,98735.47
2022-08-07T08:29:21.502Z,98739.81
2022-08-07T08:32:17.612Z,98741.44
2022-08-07T08:34:54.767Z,98743.31
2022-08-07T08:38:00.257Z,98733.50
2022-08-07T08:41:15.202Z,98732.97
2022-08-07T08:44:19.311Z,98732.56
2022-08-07T08:47:34.460Z,98737.38
2022-08-07T08:50:49.107Z,98738.00
2022-08-07T08:54:06.890Z,98728.28
2022-08-07T08:56:52.584Z,98729.03
2022-08-07T09:00:01.043Z,98732.63
2022-08-07T09:02:43.758Z,98731.41
2022-08-07T09:05:38.455Z,98724.69
2022-08-07T09:08:32.867Z,98722.38
2022-08-07T09:11:43.433Z,98712.47
2022-08-07T09:16:20.440Z,98718.13
2022-08-07T09:18:22.884Z,98719.84
2022-08-07T09:22:09.992Z,98707.66
2022-08-07T09:25:14.631Z,98720.88
2022-08-07T09:29:22.348Z,98720.44
2022-08-07T09:31:15.408Z,98716.63
2022-08-07T09:34:09.353Z,98713.41
2022-08-07T09:37:16.217Z,98703.09
2022-08-07T09:40:15.843Z,98689.38
2022-08-07T09:44:03.211Z,98714.53
2022-08-07T09:47:51.238Z,98702.34
2022-08-07T09:50:19.054Z,98706.38
2022-08-07T09:53:06.054Z,98710.84
2022-08-07T09:56:06.604Z,98692.50
2022-08-07T09:59:07.700Z,98697.53
2022-08-07T10:02:08.768Z,98689.84
2022-08-07T10:05:19.123Z,98694.69
2022-08-07T10:08:51.316Z,98691.41
2022-08-07T10:12:01.695Z,98686.16
2022-08-07T10:14:56.988Z,98678.50
2022-08-07T10:18:01.387Z,98674.00
2022-08-07T10:21:02.761Z,98675.25
2022-08-07T10:24:10.227Z,98681.31
2022-08-07T10:26:57.991Z,98670.00
2022-08-07T10:30:01.862Z,98664.66
2022-08-07T10:34:06.938Z,98669.19
2022-08-07T10:37:04.137Z,98659.03
2022-08-07T10:40:22.264Z,98656.13
2022-08-07T10:43:34.686Z,98655.84
2022-08-07T10:46:36.010Z,98646.88
2022-08-07T10:49:49.425Z,98658.88
2022-08-07T10:52:58.637Z,98644.16
2022-08-07T10:56:30.114Z,98642.09
2022-08-07T10:59:57.654Z,98636.97
2022-08-07T11:03:14.827Z,98647.66
2022-08-07T11:06:18.520Z,98634.22
2022-08-07T11:09:03.696Z,98625.97
2022-08-07T11:12:11.692Z,98626.41
2022-08-07T11:15:04.119Z,98629.47
2022-08-07T11:18:17.723Z,98629.66
2022-08-07T11:21:20.520Z,98621.22
2022-08-07T11:24:57.775Z,98615.09
2022-08-07T11:28:17.498Z,98619.41
2022-08-07T11:31:27.511Z,98615.97
2022-08-07T11:34:22.115Z,98619.97
2022-08-07T11:37:38.592Z,98606.19
2022-08-07T11:40:29.582Z,98603.78
2022-08-07T11:43:41.726Z,98597.41
2022-08-07T11:46:48.820Z,98602.19
2022-08-07T11:50:30.772Z,98600.69
2022-08-07T11:53:12.366Z,98597.16
2022-08-07T11:56:11.928Z,98589.47
2022-08-07T12:00:11.186Z,98593.84
2022-08-07T12:03:41.795Z,98596.09
2022-08-07T12:06:37.013Z,98585.81
2022-08-07T12:09:47.869Z,98582.84
2022-08-07T12:12:30.225Z,98563.91
2022-08-07T12:15:17.192Z,98576.25
2022-08-07T12:18:12.530Z,98576.94
2022-08-07T12:21:55.484Z,98573.31
2022-08-07T12:26:03.337Z,98571.84
2022-08-07T12:28:52.995Z,98565.97
2022-08-07T12:32:05.415Z,98571.56
2022-08-07T12:34:55.983Z,98560.31
2022-08-07T12:38:09.509Z,98571.34
2022-08-07T12:40:47.861Z,98565.06
2022-08-07T12:44:01.830Z,98555.09
2022-08-07T12:46:35.269Z,98558.00
2022-08-07T12:49:48.590Z,98534.03
2022-08-07T12:52:33.898Z,98561.97
2022-08-07T12:55:41.435Z,98550.56
2022-08-07T12:58:35.464Z,98503.25
2022-08-07T13:01:27.979Z,98552.91
2022-08-07T13:04:04.589Z,98547.91
2022-08-07T13:07:10.224Z,98538.22
2022-08-07T13:10:37.972Z,98554.13
2022-08-07T13:13:50.457Z,98540.47
2022-08-07T13:16:52.957Z,98531.91
2022-08-07T13:19:50.611Z,98533.63
2022-08-07T13:24:04.160Z,98533.31
2022-08-07T13:26:26.565Z,98522.69
2022-08-07T13:29:07.761Z,98516.53
2022-08-07T13:32:38.046Z,98521.44
2022-08-07T13:36:00.657Z,98513.09
2022-08-07T13:38:42.375Z,98523.03
2022-08-07T13:41:54.916Z,98523.91
2022-08-07T13:44:34.665Z,98510.19
2022-08-07T13:47:25.153Z,98508.50
2022-08-07T13:50:34.507Z,98504.03
2022-08-07T13:53:03.923Z,98491.41
2022-08-07T13:55:54.202Z,98509.19
2022-08-07T13:58:56.722Z,98503.66
2022-08-07T14:01:29.276Z,98498.00
2022-08-07T14:04:29.737Z,98500.97
2022-08-07T14:07:10.919Z,98493.22
2022-08-07T14:10:02.783Z,98497.16
2022-08-07T14:13:03.886Z,98497.59
2022-08-07T14:16:02.013Z,98491.09
2022-08-07T14:18:57.138Z,98482.19
2022-08-07T14:22:04.054Z,98482.19
2022-08-07T14:24:53.648Z,98484.66
2022-08-07T14:28:10.781Z,98484.38
2022-08-07T14:31:04.811Z,98440.75
2022-08-07T14:33:47.206Z,98485.25
2022-08-07T14:36:36.201Z,98478.69
2022-08-07T14:40:17.709Z,98472.56
2022-08-07T14:42:20.319Z,98455.13
2022-08-07T14:45:20.837Z,98472.47
2022-08-07T14:48:04.706Z,98453.19
2022-08-07T14:50:48.853Z,98458.41
2022-08-07T14:54:30.493Z,98454.63
2022-08-07T14:57:19.913Z,98455.00
2022-08-07T15:00:06.220Z,98455.88
2022-08-07T15:02:40.906Z,98436.94
2022-08-07T15:05:23.550Z,98413.97
2022-08-07T15:08:04.257Z,98450.34
2022-08-07T15:10:58.755Z,98455.22
2022-08-07T15:13:37.399Z,98458.50
2022-08-07T15:16:14.660Z,98459.31
2022-08-07T15:18:55.752Z,98443.13
2022-08-07T15:27:36.870Z,98444.03
2022-08-07T15:30:19.728Z,98448.44
2022-08-07T15:33:03.828Z,98445.25
2022-08-07T15:36:01.765Z,98448.03
2022-08-07T15:38:51.216Z,98439.97
2022-08-07T15:44:31.305Z,98443.56
2022-08-07T15:47:16.480Z,98450.81
2022-08-07T15:50:05.215Z,98438.44
2022-08-07T15:52:40.822Z,98432.84
2022-08-07T15:55:23.255Z,98456.66
2022-08-07T15:58:23.334Z,98456.25
2022-08-07T16:01:12.846Z,98450.16
2022-08-07T16:06:58.645Z,98448.97
2022-08-07T16:09:56.873Z,98438.88
2022-08-07T16:13:01.107Z,98443.31
2022-08-07T16:16:48.875Z,98446.94
2022-08-07T16:19:58.736Z,98439.25
2022-08-07T16:23:53.098Z,98442.91
2022-08-07T16:26:39.426Z,98448.56
2022-08-07T16:30:31.656Z,98449.81
2022-08-07T16:34:02.860Z,98445.78
2022-08-07T16:37:02.075Z,98438.91
2022-08-07T16:40:30.721Z,98440.53
2022-08-07T16:44:02.368Z,98438.94
2022-08-07T16:47:07.804Z,98445.81
2022-08-07T16:50:20.256Z,98452.31
2022-08-07T16:52:57.438Z,98439.34
2022-08-07T16:56:00.811Z,98439.75
2022-08-07T16:59:10.300Z,98442.97
2022-08-07T17:03:04.827Z,98447.06
2022-08-07T17:06:28.501Z,98448.69
2022-08-07T17:09:10.422Z,98453.56
2022-08-07T17:12:33.435Z,98447.09
2022-08-07T17:15:23.322Z,98443.06
2022-08-07T17:18:24.140Z,98446.69
2022-08-07T17:21:19.053Z,98438.63
2022-08-07T17:24:39.383Z,98445.13
2022-08-07T17:27:50.753Z,98450.38
2022-08-07T17:30:26.879Z,98456.06
2022-08-07T17:34:08.496Z,98462.53
2022-08-07T17:36:59.765Z,98452.41
2022-08-07T17:40:08.738Z,98459.66
2022-08-07T17:43:00.648Z,98462.91
2022-08-07T17:45:48.507Z,98450.78
2022-08-07T17:48:31.233Z,98473.81
2022-08-07T17:51:23.257Z,98466.94
2022-08-07T17:54:29.419Z,98470.19
2022-08-07T17:57:56.704Z,98458.84
2022-08-07T18:00:32.989Z,98461.22
2022-08-07T18:04:04.628Z,98472.09
2022-08-07T18:07:19.519Z,98480.56
2022-08-07T18:10:05.675Z,98478.91
2022-08-07T18:13:17.460Z,98472.06
2022-08-07T18:16:33.412Z,98472.44
2022-08-07T18:21:07.069Z,98473.66
2022-08-07T18:23:04.630Z,98474.81
2022-08-07T18:25:44.077Z,98475.63
2022-08-07T18:28:57.739Z,98479.25
2022-08-07T18:32:06.655Z,98471.91
2022-08-07T18:35:27.025Z,98476.34
2022-08-07T18:38:58.179Z,98476.72
2022-08-07T18:41:59.924Z,98475.91
2022-08-07T18:45:44.243Z,98473.81
2022-08-07T18:50:30.813Z,98479.84
2022-08-07T18:52:38.825Z,98467.72
2022-08-07T18:55:40.699Z,98482.63
2022-08-07T18:58:23.592Z,98488.28
2022-08-07T19:02:19.352Z,98491.81
2022-08-07T19:05:18.264Z,98503.88
2022-08-07T19:08:03.923Z,98503.50
2022-08-07T19:10:51.301Z,98508.31
2022-08-07T19:13:41.135Z,98506.69
2022-08-07T19:17:00.329Z,98518.72
2022-08-07T19:19:53.247Z,98516.38
2022-08-07T19:22:44.950Z,98530.47
2022-08-07T19:26:22.737Z,98537.63
2022-08-07T19:30:56.359Z,98547.06
2022-08-07T19:32:05.351Z,98544.47
2022-08-07T19:34:33.853Z,98546.03
2022-08-07T19:37:17.619Z,98551.16
2022-08-07T19:40:15.126Z,98532.63
2022-08-07T19:42:48.802Z,98549.28
2022-08-07T19:46:07.968Z,98552.81
2022-08-07T19:48:42.180Z,98544.22
2022-08-07T19:51:24.077Z,98550.25
2022-08-07T19:54:31.864Z,98548.38
2022-08-07T19:58:02.713Z,98550.00
2022-08-07T20:00:29.339Z,98544.78
2022-08-07T20:03:35.613Z,98552.94
2022-08-07T20:06:06.433Z,98558.56
2022-08-07T20:08:48.908Z,98552.56
2022-08-07T20:12:00.913Z,98547.91
2022-08-07T20:14:31.820Z,98551.91
2022-08-07T20:17:07.108Z,98547.84
2022-08-07T20:19:48.108Z,98556.22
2022-08-07T20:22:39.293Z,98547.31
2022-08-07T20:25:24.799Z,98529.00
2022-08-07T20:28:03.397Z,98543.72
2022-08-07T20:33:37.984Z,98541.94
2022-08-07T20:36:11.723Z,98546.09
2022-08-07T20:39:00.471Z,98546.09
2022-08-07T20:41:50.313Z,98546.03
2022-08-07T20:44:33.292Z,98550.47
2022-08-07T20:47:16.610Z,98542.28
2022-08-07T20:49:59.275Z,98544.41
2022-08-07T20:52:51.018Z,98550.47
2022-08-07T20:55:42.317Z,98550.06
2022-08-07T20:58:28.173Z,98541.63
2022-08-07T21:01:19.613Z,98550.34
2022-08-07T21:04:19.887Z,98524.78
2022-08-07T21:06:57.417Z,98545.91
2022-08-07T21:09:53.290Z,98551.44
2022-08-07T21:12:49.100Z,98555.94
2022-08-07T21:15:58.651Z,98552.47
2022-08-07T21:18:27.905Z,98562.25
2022-08-07T21:21:02.576Z,98560.63
2022-08-07T21:24:13.518Z,98560.94
2022-08-07T21:27:14.795Z,98547.09
2022-08-07T21:30:03.872Z,98563.31
2022-08-07T21:32:55.307Z,98557.69
2022-08-07T21:36:05.808Z,98558.59
2022-08-07T21:39:46.393Z,98560.06
2022-08-07T21:42:52.994Z,98556.84
2022-08-07T21:46:09.720Z,98558.09
2022-08-07T21:49:04.889Z,98554.44
2022-08-07T21:52:18.011Z,98550.38
2022-08-07T21:55:28.115Z,98550.28
2022-08-07T21:58:30.028Z,98566.44
2022-08-07T22:02:10.864Z,98552.41
2022-08-07T22:04:52.537Z,98555.09
2022-08-07T22:07:48.755Z,98557.22
2022-08-07T22:10:35.451Z,98555.63
2022-08-07T22:13:15.495Z,98556.94
2022-08-07T22:16:42.880Z,98552.50
2022-08-07T22:19:37.630Z,98552.28
2022-08-07T22:22:28.985Z,98550.00
2022-08-07T22:25:19.955Z,98547.66
2022-08-07T22:28:31.750Z,98549.56
2022-08-07T22:31:59.251Z,98542.69
2022-08-07T22:34:35.503Z,98528.16
2022-08-07T22:38:03.311Z,98544.47
2022-08-07T22:40:37.600Z,98540.06
2022-08-07T22:43:20.085Z,98535.09
2022-08-07T22:47:02.754Z,98527.47
2022-08-07T22:50:01.163Z,98525.53
2022-08-07T22:53:01.134Z,98520.16
2022-08-07T22:56:11.166Z,98522.72
2022-08-07T22:59:34.201Z,98521.34
2022-08-07T23:02:45.015Z,98522.22
2022-08-07T23:06:06.947Z,98524.38
2022-08-07T23:12:32.604Z,98522.47
2022-08-07T23:16:06.515Z,98511.09
2022-08-07T23:19:14.010Z,98531.44
2022-08-07T23:22:22.116Z,98530.94
2022-08-07T23:25:28.247Z,98528.03
2022-08-07T23:28:44.249Z,98524.94
2022-08-07T23:32:49.238Z,98528.84
2022-08-07T23:35:01.231Z,98530.53
2022-08-07T23:38:00.447Z,98525.72
2022-08-07T23:41:09.551Z,98531.94
2022-08-07T23:43:59.569Z,98531.56
2022-08-07T23:47:08.333Z,98529.44
2022-08-07T23:50:11.742Z,98528.63
2022-08-07T23:53:21.979Z,98519.38
2022-08-07T23:56:20.808Z,98520.94
